sensor_id;sensor_type;location;lat;lon;timestamp;P1;durP1;ratioP1;P2;durP2;ratioP2
84345;SDS011;74709;53.128;18.020;2024-01-11T00:01:02;28.40;;;9.70;;
84345;SDS011;74709;53.128;18.020;2024-01-11T00:02:13;19.90;;;7.70;;
84345;SDS011;74709;53.128;18.020;2024-01-11T00:03:19;22.10;;;10.20;;
84345;SDS011;74709;53.128;18.020;2024-01-11T00:04:22;22.70;;;8.50;;
84345;SDS011;74709;53.128;18.020;2024-01-11T00:05:24;23.20;;;9.00;;
84345;SDS011;74709;53.128;18.020;2024-01-11T00:06:27;21.20;;;8.80;;
84345;SDS011;74709;53.128;18.020;2024-01-11T00:07:30;23.50;;;8.50;;
84345;SDS011;74709;53.128;18.020;2024-01-11T00:08:33;24.40;;;11.00;;
84345;SDS011;74709;53.128;18.020;2024-01-11T00:09:39;26.50;;;10.10;;
84345;SDS011;74709;53.128;18.020;2024-01-11T00:10:43;22.60;;;8.60;;
84345;SDS011;74709;53.128;18.020;2024-01-11T00:11:46;25.60;;;10.00;;
84345;SDS011;74709;53.128;18.020;2024-01-11T00:12:48;23.70;;;10.20;;
84345;SDS011;74709;53.128;18.020;2024-01-11T00:13:51;27.90;;;11.80;;
84345;SDS011;74709;53.128;18.020;2024-01-11T00:14:54;23.40;;;8.40;;
84345;SDS011;74709;53.128;18.020;2024-01-11T00:15:57;27.50;;;10.50;;
84345;SDS011;74709;53.128;18.020;2024-01-11T00:16:59;24.30;;;10.90;;
84345;SDS011;74709;53.128;18.020;2024-01-11T00:18:05;25.00;;;9.90;;
84345;SDS011;74709;53.128;18.020;2024-01-11T00:19:08;24.20;;;10.50;;
84345;SDS011;74709;53.128;18.020;2024-01-11T00:20:11;27.40;;;11.20;;
84345;SDS011;74709;53.128;18.020;2024-01-11T00:21:15;28.30;;;10.30;;
84345;SDS011;74709;53.128;18.020;2024-01-11T00:22:17;23.30;;;10.50;;
84345;SDS011;74709;53.128;18.020;2024-01-11T00:23:20;27.20;;;10.20;;
84345;SDS011;74709;53.128;18.020;2024-01-11T00:25:28;27.20;;;10.90;;
84345;SDS011;74709;53.128;18.020;2024-01-11T00:26:32;26.40;;;10.20;;
84345;SDS011;74709;53.128;18.020;2024-01-11T00:27:35;23.40;;;10.50;;
84345;SDS011;74709;53.128;18.020;2024-01-11T00:28:38;27.50;;;11.20;;
84345;SDS011;74709;53.128;18.020;2024-01-11T00:29:41;28.60;;;11.80;;
84345;SDS011;74709;53.128;18.020;2024-01-11T00:30:44;26.20;;;10.30;;
84345;SDS011;74709;53.128;18.020;2024-01-11T00:31:47;25.20;;;9.50;;
84345;SDS011;74709;53.128;18.020;2024-01-11T00:32:50;26.30;;;12.00;;
84345;SDS011;74709;53.128;18.020;2024-01-11T00:33:53;30.10;;;11.00;;
84345;SDS011;74709;53.128;18.020;2024-01-11T00:34:56;27.90;;;10.70;;
84345;SDS011;74709;53.128;18.020;2024-01-11T00:35:58;27.10;;;9.10;;
84345;SDS011;74709;53.128;18.020;2024-01-11T00:37:01;29.40;;;12.50;;
84345;SDS011;74709;53.128;18.020;2024-01-11T00:38:05;26.10;;;10.60;;
84345;SDS011;74709;53.128;18.020;2024-01-11T00:39:07;23.70;;;10.40;;
84345;SDS011;74709;53.128;18.020;2024-01-11T00:40:10;29.10;;;10.80;;
84345;SDS011;74709;53.128;18.020;2024-01-11T00:41:13;23.40;;;9.70;;
84345;SDS011;74709;53.128;18.020;2024-01-11T00:42:16;23.10;;;9.70;;
84345;SDS011;74709;53.128;18.020;2024-01-11T00:43:19;26.70;;;8.80;;
84345;SDS011;74709;53.128;18.020;2024-01-11T00:44:22;26.20;;;9.40;;
84345;SDS011;74709;53.128;18.020;2024-01-11T00:45:25;26.70;;;9.80;;
84345;SDS011;74709;53.128;18.020;2024-01-11T00:46:30;22.00;;;7.90;;
84345;SDS011;74709;53.128;18.020;2024-01-11T00:47:33;22.50;;;8.60;;
84345;SDS011;74709;53.128;18.020;2024-01-11T00:48:36;23.40;;;8.70;;
84345;SDS011;74709;53.128;18.020;2024-01-11T00:49:40;23.00;;;7.90;;
84345;SDS011;74709;53.128;18.020;2024-01-11T00:50:43;27.40;;;11.00;;
84345;SDS011;74709;53.128;18.020;2024-01-11T00:51:46;28.70;;;8.60;;
84345;SDS011;74709;53.128;18.020;2024-01-11T00:52:48;19.70;;;8.60;;
84345;SDS011;74709;53.128;18.020;2024-01-11T00:53:51;24.00;;;8.80;;
84345;SDS011;74709;53.128;18.020;2024-01-11T00:54:56;18.90;;;6.90;;
84345;SDS011;74709;53.128;18.020;2024-01-11T00:56:00;26.20;;;9.20;;
84345;SDS011;74709;53.128;18.020;2024-01-11T00:57:03;22.00;;;9.10;;
84345;SDS011;74709;53.128;18.020;2024-01-11T00:58:05;22.30;;;9.60;;
84345;SDS011;74709;53.128;18.020;2024-01-11T00:59:08;27.60;;;9.00;;
84345;SDS011;74709;53.128;18.020;2024-01-11T01:00:11;26.90;;;11.80;;
84345;SDS011;74709;53.128;18.020;2024-01-11T01:01:18;22.30;;;8.40;;
84345;SDS011;74709;53.128;18.020;2024-01-11T01:02:21;23.70;;;8.60;;
84345;SDS011;74709;53.128;18.020;2024-01-11T01:03:24;23.50;;;8.50;;
84345;SDS011;74709;53.128;18.020;2024-01-11T01:04:27;20.90;;;7.60;;
84345;SDS011;74709;53.128;18.020;2024-01-11T01:05:29;24.70;;;9.60;;
84345;SDS011;74709;53.128;18.020;2024-01-11T01:06:32;23.20;;;9.70;;
84345;SDS011;74709;53.128;18.020;2024-01-11T01:07:35;22.50;;;9.30;;
84345;SDS011;74709;53.128;18.020;2024-01-11T01:08:38;22.00;;;10.10;;
84345;SDS011;74709;53.128;18.020;2024-01-11T01:09:40;24.50;;;11.20;;
84345;SDS011;74709;53.128;18.020;2024-01-11T01:10:43;26.10;;;9.60;;
84345;SDS011;74709;53.128;18.020;2024-01-11T01:11:46;24.50;;;9.70;;
84345;SDS011;74709;53.128;18.020;2024-01-11T01:12:49;29.50;;;11.10;;
84345;SDS011;74709;53.128;18.020;2024-01-11T01:13:51;30.50;;;10.30;;
84345;SDS011;74709;53.128;18.020;2024-01-11T01:14:54;30.40;;;10.60;;
84345;SDS011;74709;53.128;18.020;2024-01-11T01:15:58;30.20;;;11.70;;
84345;SDS011;74709;53.128;18.020;2024-01-11T01:17:01;24.90;;;9.30;;
84345;SDS011;74709;53.128;18.020;2024-01-11T01:18:06;27.50;;;10.80;;
84345;SDS011;74709;53.128;18.020;2024-01-11T01:19:09;24.20;;;8.50;;
84345;SDS011;74709;53.128;18.020;2024-01-11T01:20:12;27.00;;;11.70;;
84345;SDS011;74709;53.128;18.020;2024-01-11T01:21:14;25.10;;;8.60;;
84345;SDS011;74709;53.128;18.020;2024-01-11T01:22:17;28.20;;;11.40;;
84345;SDS011;74709;53.128;18.020;2024-01-11T01:23:20;21.30;;;7.70;;
84345;SDS011;74709;53.128;18.020;2024-01-11T01:24:23;22.70;;;9.20;;
84345;SDS011;74709;53.128;18.020;2024-01-11T01:25:26;27.20;;;9.90;;
84345;SDS011;74709;53.128;18.020;2024-01-11T01:26:29;25.20;;;9.50;;
84345;SDS011;74709;53.128;18.020;2024-01-11T01:27:33;27.50;;;9.20;;
84345;SDS011;74709;53.128;18.020;2024-01-11T01:28:36;24.30;;;9.30;;
84345;SDS011;74709;53.128;18.020;2024-01-11T01:29:39;22.50;;;8.00;;
84345;SDS011;74709;53.128;18.020;2024-01-11T01:30:42;29.60;;;10.20;;
84345;SDS011;74709;53.128;18.020;2024-01-11T01:31:44;24.60;;;9.10;;
84345;SDS011;74709;53.128;18.020;2024-01-11T01:32:47;24.20;;;9.20;;
84345;SDS011;74709;53.128;18.020;2024-01-11T01:33:50;27.50;;;9.80;;
84345;SDS011;74709;53.128;18.020;2024-01-11T01:34:52;29.30;;;11.60;;
84345;SDS011;74709;53.128;18.020;2024-01-11T01:35:55;23.60;;;9.70;;
84345;SDS011;74709;53.128;18.020;2024-01-11T01:36:58;32.70;;;10.30;;
84345;SDS011;74709;53.128;18.020;2024-01-11T01:38:01;31.90;;;10.50;;
84345;SDS011;74709;53.128;18.020;2024-01-11T01:39:04;26.80;;;9.60;;
84345;SDS011;74709;53.128;18.020;2024-01-11T01:40:07;26.10;;;10.20;;
84345;SDS011;74709;53.128;18.020;2024-01-11T01:41:11;26.00;;;10.00;;
84345;SDS011;74709;53.128;18.020;2024-01-11T01:42:14;26.40;;;10.10;;
84345;SDS011;74709;53.128;18.020;2024-01-11T01:43:16;32.20;;;11.10;;
84345;SDS011;74709;53.128;18.020;2024-01-11T01:44:19;34.90;;;11.70;;
84345;SDS011;74709;53.128;18.020;2024-01-11T01:45:22;30.10;;;10.50;;
84345;SDS011;74709;53.128;18.020;2024-01-11T01:46:25;30.40;;;11.00;;
84345;SDS011;74709;53.128;18.020;2024-01-11T01:47:28;34.10;;;10.10;;
84345;SDS011;74709;53.128;18.020;2024-01-11T01:48:31;27.40;;;9.50;;
84345;SDS011;74709;53.128;18.020;2024-01-11T01:49:35;29.00;;;11.10;;
84345;SDS011;74709;53.128;18.020;2024-01-11T01:50:38;30.40;;;10.80;;
84345;SDS011;74709;53.128;18.020;2024-01-11T01:51:41;30.20;;;11.80;;
84345;SDS011;74709;53.128;18.020;2024-01-11T01:52:44;30.30;;;10.30;;
84345;SDS011;74709;53.128;18.020;2024-01-11T01:53:47;26.80;;;10.40;;
84345;SDS011;74709;53.128;18.020;2024-01-11T01:54:50;27.80;;;11.00;;
84345;SDS011;74709;53.128;18.020;2024-01-11T01:55:53;30.80;;;12.00;;
84345;SDS011;74709;53.128;18.020;2024-01-11T01:56:56;28.90;;;12.00;;
84345;SDS011;74709;53.128;18.020;2024-01-11T01:57:59;30.50;;;12.30;;
84345;SDS011;74709;53.128;18.020;2024-01-11T01:59:02;32.00;;;10.60;;
84345;SDS011;74709;53.128;18.020;2024-01-11T02:00:06;27.30;;;9.60;;
84345;SDS011;74709;53.128;18.020;2024-01-11T02:01:11;32.30;;;10.80;;
84345;SDS011;74709;53.128;18.020;2024-01-11T02:02:14;35.30;;;11.70;;
84345;SDS011;74709;53.128;18.020;2024-01-11T02:03:18;30.60;;;12.40;;
84345;SDS011;74709;53.128;18.020;2024-01-11T02:04:21;29.70;;;10.80;;
84345;SDS011;74709;53.128;18.020;2024-01-11T02:05:25;38.50;;;12.40;;
84345;SDS011;74709;53.128;18.020;2024-01-11T02:06:28;28.30;;;10.30;;
84345;SDS011;74709;53.128;18.020;2024-01-11T02:07:32;37.40;;;14.20;;
84345;SDS011;74709;53.128;18.020;2024-01-11T02:08:35;33.20;;;11.80;;
84345;SDS011;74709;53.128;18.020;2024-01-11T02:09:38;35.40;;;12.00;;
84345;SDS011;74709;53.128;18.020;2024-01-11T02:10:42;34.70;;;12.40;;
84345;SDS011;74709;53.128;18.020;2024-01-11T02:11:45;34.40;;;10.70;;
84345;SDS011;74709;53.128;18.020;2024-01-11T02:12:48;29.10;;;10.50;;
84345;SDS011;74709;53.128;18.020;2024-01-11T02:13:51;35.80;;;12.30;;
84345;SDS011;74709;53.128;18.020;2024-01-11T02:14:55;31.20;;;11.40;;
84345;SDS011;74709;53.128;18.020;2024-01-11T02:15:58;38.00;;;12.90;;
84345;SDS011;74709;53.128;18.020;2024-01-11T02:17:01;37.20;;;11.00;;
84345;SDS011;74709;53.128;18.020;2024-01-11T02:18:04;37.40;;;11.30;;
84345;SDS011;74709;53.128;18.020;2024-01-11T02:19:07;39.20;;;14.30;;
84345;SDS011;74709;53.128;18.020;2024-01-11T02:20:13;30.60;;;12.10;;
84345;SDS011;74709;53.128;18.020;2024-01-11T02:21:16;35.60;;;12.60;;
84345;SDS011;74709;53.128;18.020;2024-01-11T02:22:24;34.80;;;12.00;;
84345;SDS011;74709;53.128;18.020;2024-01-11T02:23:30;29.40;;;10.40;;
84345;SDS011;74709;53.128;18.020;2024-01-11T02:24:33;37.00;;;12.70;;
84345;SDS011;74709;53.128;18.020;2024-01-11T02:25:36;34.50;;;12.40;;
84345;SDS011;74709;53.128;18.020;2024-01-11T02:26:57;39.10;;;11.50;;
84345;SDS011;74709;53.128;18.020;2024-01-11T02:28:03;25.30;;;9.70;;
84345;SDS011;74709;53.128;18.020;2024-01-11T02:29:06;22.90;;;8.90;;
84345;SDS011;74709;53.128;18.020;2024-01-11T02:30:09;36.20;;;11.20;;
84345;SDS011;74709;53.128;18.020;2024-01-11T02:31:12;36.10;;;11.00;;
84345;SDS011;74709;53.128;18.020;2024-01-11T02:32:16;31.50;;;10.50;;
84345;SDS011;74709;53.128;18.020;2024-01-11T02:33:19;32.40;;;10.10;;
84345;SDS011;74709;53.128;18.020;2024-01-11T02:34:25;34.40;;;14.40;;
84345;SDS011;74709;53.128;18.020;2024-01-11T02:35:29;30.50;;;10.30;;
84345;SDS011;74709;53.128;18.020;2024-01-11T02:36:31;31.40;;;10.70;;
84345;SDS011;74709;53.128;18.020;2024-01-11T02:37:35;32.50;;;10.30;;
84345;SDS011;74709;53.128;18.020;2024-01-11T02:38:39;28.50;;;11.10;;
84345;SDS011;74709;53.128;18.020;2024-01-11T02:39:44;33.20;;;11.80;;
84345;SDS011;74709;53.128;18.020;2024-01-11T02:40:47;28.70;;;11.40;;
84345;SDS011;74709;53.128;18.020;2024-01-11T02:41:51;32.20;;;10.70;;
84345;SDS011;74709;53.128;18.020;2024-01-11T02:42:54;28.70;;;11.20;;
84345;SDS011;74709;53.128;18.020;2024-01-11T02:43:57;32.30;;;11.80;;
84345;SDS011;74709;53.128;18.020;2024-01-11T02:45:00;29.10;;;10.90;;
84345;SDS011;74709;53.128;18.020;2024-01-11T02:46:03;32.30;;;11.60;;
84345;SDS011;74709;53.128;18.020;2024-01-11T02:47:05;26.70;;;11.70;;
84345;SDS011;74709;53.128;18.020;2024-01-11T02:48:08;31.60;;;12.00;;
84345;SDS011;74709;53.128;18.020;2024-01-11T02:49:11;27.90;;;11.00;;
84345;SDS011;74709;53.128;18.020;2024-01-11T02:50:14;29.30;;;11.10;;
84345;SDS011;74709;53.128;18.020;2024-01-11T02:51:16;28.00;;;9.70;;
84345;SDS011;74709;53.128;18.020;2024-01-11T02:52:19;29.40;;;9.70;;
84345;SDS011;74709;53.128;18.020;2024-01-11T02:53:22;26.10;;;10.30;;
84345;SDS011;74709;53.128;18.020;2024-01-11T02:54:26;31.10;;;11.60;;
84345;SDS011;74709;53.128;18.020;2024-01-11T02:55:28;24.00;;;10.40;;
84345;SDS011;74709;53.128;18.020;2024-01-11T02:56:31;26.70;;;11.20;;
84345;SDS011;74709;53.128;18.020;2024-01-11T02:57:34;21.00;;;8.40;;
84345;SDS011;74709;53.128;18.020;2024-01-11T02:58:37;25.50;;;9.80;;
84345;SDS011;74709;53.128;18.020;2024-01-11T02:59:40;26.50;;;10.20;;
84345;SDS011;74709;53.128;18.020;2024-01-11T03:00:44;27.40;;;10.80;;
84345;SDS011;74709;53.128;18.020;2024-01-11T03:01:48;28.40;;;10.60;;
84345;SDS011;74709;53.128;18.020;2024-01-11T03:02:50;21.90;;;9.70;;
84345;SDS011;74709;53.128;18.020;2024-01-11T03:03:54;22.50;;;8.70;;
84345;SDS011;74709;53.128;18.020;2024-01-11T03:04:57;24.90;;;10.30;;
84345;SDS011;74709;53.128;18.020;2024-01-11T03:06:00;20.70;;;9.00;;
84345;SDS011;74709;53.128;18.020;2024-01-11T03:07:02;18.50;;;8.60;;
84345;SDS011;74709;53.128;18.020;2024-01-11T03:08:05;17.30;;;6.90;;
84345;SDS011;74709;53.128;18.020;2024-01-11T03:09:08;21.30;;;8.60;;
84345;SDS011;74709;53.128;18.020;2024-01-11T03:10:11;20.50;;;9.20;;
84345;SDS011;74709;53.128;18.020;2024-01-11T03:11:13;21.20;;;8.40;;
84345;SDS011;74709;53.128;18.020;2024-01-11T03:12:16;21.20;;;7.30;;
84345;SDS011;74709;53.128;18.020;2024-01-11T03:13:19;23.10;;;8.60;;
84345;SDS011;74709;53.128;18.020;2024-01-11T03:14:22;24.30;;;10.50;;
84345;SDS011;74709;53.128;18.020;2024-01-11T03:15:24;26.00;;;9.20;;
84345;SDS011;74709;53.128;18.020;2024-01-11T03:16:27;22.90;;;9.40;;
84345;SDS011;74709;53.128;18.020;2024-01-11T03:17:30;25.10;;;11.20;;
84345;SDS011;74709;53.128;18.020;2024-01-11T03:18:32;22.60;;;10.00;;
84345;SDS011;74709;53.128;18.020;2024-01-11T03:19:39;21.80;;;9.30;;
84345;SDS011;74709;53.128;18.020;2024-01-11T03:20:42;25.10;;;8.40;;
84345;SDS011;74709;53.128;18.020;2024-01-11T03:21:46;19.80;;;8.60;;
84345;SDS011;74709;53.128;18.020;2024-01-11T03:22:48;21.40;;;8.00;;
84345;SDS011;74709;53.128;18.020;2024-01-11T03:23:51;22.30;;;8.50;;
84345;SDS011;74709;53.128;18.020;2024-01-11T03:24:54;21.40;;;8.90;;
84345;SDS011;74709;53.128;18.020;2024-01-11T03:25:57;19.80;;;7.60;;
84345;SDS011;74709;53.128;18.020;2024-01-11T03:27:00;21.20;;;8.50;;
84345;SDS011;74709;53.128;18.020;2024-01-11T03:28:03;18.50;;;7.70;;
84345;SDS011;74709;53.128;18.020;2024-01-11T03:29:06;16.00;;;7.60;;
84345;SDS011;74709;53.128;18.020;2024-01-11T03:30:08;19.50;;;8.90;;
84345;SDS011;74709;53.128;18.020;2024-01-11T03:31:12;20.00;;;9.80;;
84345;SDS011;74709;53.128;18.020;2024-01-11T03:32:14;19.10;;;8.40;;
84345;SDS011;74709;53.128;18.020;2024-01-11T03:33:17;21.50;;;8.60;;
84345;SDS011;74709;53.128;18.020;2024-01-11T03:34:20;19.00;;;9.00;;
84345;SDS011;74709;53.128;18.020;2024-01-11T03:35:22;19.60;;;9.10;;
84345;SDS011;74709;53.128;18.020;2024-01-11T03:36:25;15.50;;;7.90;;
84345;SDS011;74709;53.128;18.020;2024-01-11T03:37:28;21.90;;;8.70;;
84345;SDS011;74709;53.128;18.020;2024-01-11T03:38:31;20.00;;;6.80;;
84345;SDS011;74709;53.128;18.020;2024-01-11T03:39:34;20.00;;;8.10;;
84345;SDS011;74709;53.128;18.020;2024-01-11T03:40:37;16.20;;;7.30;;
84345;SDS011;74709;53.128;18.020;2024-01-11T03:41:46;17.70;;;7.20;;
84345;SDS011;74709;53.128;18.020;2024-01-11T03:42:49;18.90;;;6.80;;
84345;SDS011;74709;53.128;18.020;2024-01-11T03:43:52;16.90;;;7.80;;
84345;SDS011;74709;53.128;18.020;2024-01-11T03:44:55;19.40;;;7.80;;
84345;SDS011;74709;53.128;18.020;2024-01-11T03:45:58;17.00;;;7.10;;
84345;SDS011;74709;53.128;18.020;2024-01-11T03:47:00;21.20;;;8.80;;
84345;SDS011;74709;53.128;18.020;2024-01-11T03:48:03;19.70;;;9.50;;
84345;SDS011;74709;53.128;18.020;2024-01-11T03:49:06;20.10;;;8.30;;
84345;SDS011;74709;53.128;18.020;2024-01-11T03:50:10;19.30;;;8.00;;
84345;SDS011;74709;53.128;18.020;2024-01-11T03:51:13;21.80;;;9.50;;
84345;SDS011;74709;53.128;18.020;2024-01-11T03:52:15;19.60;;;8.80;;
84345;SDS011;74709;53.128;18.020;2024-01-11T03:53:18;20.90;;;9.40;;
84345;SDS011;74709;53.128;18.020;2024-01-11T03:54:21;21.80;;;10.00;;
84345;SDS011;74709;53.128;18.020;2024-01-11T03:55:23;18.90;;;8.20;;
84345;SDS011;74709;53.128;18.020;2024-01-11T03:56:27;19.30;;;9.00;;
84345;SDS011;74709;53.128;18.020;2024-01-11T03:57:30;17.30;;;8.10;;
84345;SDS011;74709;53.128;18.020;2024-01-11T03:58:32;18.10;;;8.60;;
84345;SDS011;74709;53.128;18.020;2024-01-11T03:59:35;22.40;;;8.80;;
84345;SDS011;74709;53.128;18.020;2024-01-11T04:00:38;17.30;;;8.00;;
84345;SDS011;74709;53.128;18.020;2024-01-11T04:01:40;20.80;;;9.50;;
84345;SDS011;74709;53.128;18.020;2024-01-11T04:02:43;23.30;;;9.30;;
84345;SDS011;74709;53.128;18.020;2024-01-11T04:03:49;20.20;;;10.10;;
84345;SDS011;74709;53.128;18.020;2024-01-11T04:04:51;19.90;;;9.50;;
84345;SDS011;74709;53.128;18.020;2024-01-11T04:05:56;20.50;;;8.50;;
84345;SDS011;74709;53.128;18.020;2024-01-11T04:06:59;19.80;;;9.20;;
84345;SDS011;74709;53.128;18.020;2024-01-11T04:08:05;20.30;;;9.80;;
84345;SDS011;74709;53.128;18.020;2024-01-11T04:09:09;22.20;;;8.90;;
84345;SDS011;74709;53.128;18.020;2024-01-11T04:10:12;20.20;;;10.20;;
84345;SDS011;74709;53.128;18.020;2024-01-11T04:11:14;20.80;;;8.00;;
84345;SDS011;74709;53.128;18.020;2024-01-11T04:12:17;18.90;;;8.00;;
84345;SDS011;74709;53.128;18.020;2024-01-11T04:13:20;18.50;;;8.90;;
84345;SDS011;74709;53.128;18.020;2024-01-11T04:14:22;17.70;;;8.30;;
84345;SDS011;74709;53.128;18.020;2024-01-11T04:15:25;17.90;;;8.00;;
84345;SDS011;74709;53.128;18.020;2024-01-11T04:16:28;22.80;;;9.20;;
84345;SDS011;74709;53.128;18.020;2024-01-11T04:17:31;16.20;;;7.90;;
84345;SDS011;74709;53.128;18.020;2024-01-11T04:18:34;16.50;;;8.70;;
84345;SDS011;74709;53.128;18.020;2024-01-11T04:19:37;15.50;;;7.80;;
84345;SDS011;74709;53.128;18.020;2024-01-11T04:20:40;18.50;;;8.90;;
84345;SDS011;74709;53.128;18.020;2024-01-11T04:21:42;21.30;;;10.00;;
84345;SDS011;74709;53.128;18.020;2024-01-11T04:22:45;19.70;;;10.20;;
84345;SDS011;74709;53.128;18.020;2024-01-11T04:23:48;22.40;;;9.70;;
84345;SDS011;74709;53.128;18.020;2024-01-11T04:24:50;21.10;;;9.00;;
84345;SDS011;74709;53.128;18.020;2024-01-11T04:25:53;18.40;;;8.80;;
84345;SDS011;74709;53.128;18.020;2024-01-11T04:26:56;20.60;;;8.40;;
84345;SDS011;74709;53.128;18.020;2024-01-11T04:27:58;21.30;;;9.10;;
84345;SDS011;74709;53.128;18.020;2024-01-11T04:29:01;23.00;;;9.80;;
84345;SDS011;74709;53.128;18.020;2024-01-11T04:30:04;21.40;;;9.60;;
84345;SDS011;74709;53.128;18.020;2024-01-11T04:31:08;20.30;;;9.80;;
84345;SDS011;74709;53.128;18.020;2024-01-11T04:32:10;20.40;;;9.00;;
84345;SDS011;74709;53.128;18.020;2024-01-11T04:33:13;19.90;;;9.90;;
84345;SDS011;74709;53.128;18.020;2024-01-11T04:34:16;22.20;;;10.00;;
84345;SDS011;74709;53.128;18.020;2024-01-11T04:35:18;21.00;;;10.90;;
84345;SDS011;74709;53.128;18.020;2024-01-11T04:36:21;20.40;;;8.50;;
84345;SDS011;74709;53.128;18.020;2024-01-11T04:37:24;22.30;;;10.40;;
84345;SDS011;74709;53.128;18.020;2024-01-11T04:38:26;20.20;;;11.10;;
84345;SDS011;74709;53.128;18.020;2024-01-11T04:39:29;22.90;;;11.10;;
84345;SDS011;74709;53.128;18.020;2024-01-11T04:40:33;19.80;;;8.40;;
84345;SDS011;74709;53.128;18.020;2024-01-11T04:41:36;22.60;;;9.70;;
84345;SDS011;74709;53.128;18.020;2024-01-11T04:42:41;26.40;;;10.20;;
84345;SDS011;74709;53.128;18.020;2024-01-11T04:43:44;23.40;;;10.00;;
84345;SDS011;74709;53.128;18.020;2024-01-11T04:44:47;19.90;;;9.10;;
84345;SDS011;74709;53.128;18.020;2024-01-11T04:45:50;26.90;;;10.80;;
84345;SDS011;74709;53.128;18.020;2024-01-11T04:46:53;20.30;;;10.40;;
84345;SDS011;74709;53.128;18.020;2024-01-11T04:47:56;25.80;;;11.10;;
84345;SDS011;74709;53.128;18.020;2024-01-11T04:48:59;23.50;;;11.40;;
84345;SDS011;74709;53.128;18.020;2024-01-11T04:50:01;21.80;;;9.90;;
84345;SDS011;74709;53.128;18.020;2024-01-11T04:51:07;18.70;;;9.50;;
84345;SDS011;74709;53.128;18.020;2024-01-11T04:52:10;24.70;;;9.60;;
84345;SDS011;74709;53.128;18.020;2024-01-11T04:53:13;19.70;;;9.50;;
84345;SDS011;74709;53.128;18.020;2024-01-11T04:54:18;24.00;;;9.20;;
84345;SDS011;74709;53.128;18.020;2024-01-11T04:55:21;19.70;;;9.90;;
84345;SDS011;74709;53.128;18.020;2024-01-11T04:56:24;20.00;;;10.80;;
84345;SDS011;74709;53.128;18.020;2024-01-11T04:57:27;21.10;;;11.60;;
84345;SDS011;74709;53.128;18.020;2024-01-11T04:58:30;21.60;;;9.70;;
84345;SDS011;74709;53.128;18.020;2024-01-11T04:59:32;20.30;;;9.30;;
84345;SDS011;74709;53.128;18.020;2024-01-11T05:00:35;24.50;;;10.90;;
84345;SDS011;74709;53.128;18.020;2024-01-11T05:02:42;21.70;;;9.80;;
84345;SDS011;74709;53.128;18.020;2024-01-11T05:03:46;21.60;;;10.00;;
84345;SDS011;74709;53.128;18.020;2024-01-11T05:04:50;23.60;;;11.20;;
84345;SDS011;74709;53.128;18.020;2024-01-11T05:05:54;21.30;;;10.00;;
84345;SDS011;74709;53.128;18.020;2024-01-11T05:07:02;19.40;;;9.90;;
84345;SDS011;74709;53.128;18.020;2024-01-11T05:08:06;20.60;;;10.10;;
84345;SDS011;74709;53.128;18.020;2024-01-11T05:09:09;20.50;;;9.70;;
84345;SDS011;74709;53.128;18.020;2024-01-11T05:10:12;21.90;;;9.60;;
84345;SDS011;74709;53.128;18.020;2024-01-11T05:11:18;23.50;;;11.10;;
84345;SDS011;74709;53.128;18.020;2024-01-11T05:12:22;19.00;;;9.70;;
84345;SDS011;74709;53.128;18.020;2024-01-11T05:13:25;24.10;;;10.90;;
84345;SDS011;74709;53.128;18.020;2024-01-11T05:14:28;20.30;;;9.00;;
84345;SDS011;74709;53.128;18.020;2024-01-11T05:15:30;18.70;;;9.00;;
84345;SDS011;74709;53.128;18.020;2024-01-11T05:16:33;20.40;;;9.50;;
84345;SDS011;74709;53.128;18.020;2024-01-11T05:17:38;20.90;;;10.60;;
84345;SDS011;74709;53.128;18.020;2024-01-11T05:18:40;21.90;;;8.80;;
84345;SDS011;74709;53.128;18.020;2024-01-11T05:19:43;20.50;;;11.20;;
84345;SDS011;74709;53.128;18.020;2024-01-11T05:20:46;21.90;;;9.50;;
84345;SDS011;74709;53.128;18.020;2024-01-11T05:21:48;21.00;;;9.30;;
84345;SDS011;74709;53.128;18.020;2024-01-11T05:22:53;23.40;;;10.90;;
84345;SDS011;74709;53.128;18.020;2024-01-11T05:23:57;25.10;;;11.40;;
84345;SDS011;74709;53.128;18.020;2024-01-11T05:24:59;19.00;;;10.00;;
84345;SDS011;74709;53.128;18.020;2024-01-11T05:26:02;24.90;;;11.70;;
84345;SDS011;74709;53.128;18.020;2024-01-11T05:27:05;25.50;;;11.10;;
84345;SDS011;74709;53.128;18.020;2024-01-11T05:28:08;19.10;;;9.90;;
84345;SDS011;74709;53.128;18.020;2024-01-11T05:29:11;19.60;;;10.00;;
84345;SDS011;74709;53.128;18.020;2024-01-11T05:30:14;20.30;;;10.60;;
84345;SDS011;74709;53.128;18.020;2024-01-11T05:31:17;22.10;;;10.50;;
84345;SDS011;74709;53.128;18.020;2024-01-11T05:32:19;20.70;;;10.30;;
84345;SDS011;74709;53.128;18.020;2024-01-11T05:33:24;20.50;;;10.30;;
84345;SDS011;74709;53.128;18.020;2024-01-11T05:34:28;22.30;;;10.60;;
84345;SDS011;74709;53.128;18.020;2024-01-11T05:35:31;20.70;;;10.60;;
84345;SDS011;74709;53.128;18.020;2024-01-11T05:36:33;22.50;;;11.10;;
84345;SDS011;74709;53.128;18.020;2024-01-11T05:37:36;19.30;;;10.50;;
84345;SDS011;74709;53.128;18.020;2024-01-11T05:38:39;25.70;;;11.40;;
84345;SDS011;74709;53.128;18.020;2024-01-11T05:39:42;22.40;;;11.10;;
84345;SDS011;74709;53.128;18.020;2024-01-11T05:40:46;21.60;;;10.50;;
84345;SDS011;74709;53.128;18.020;2024-01-11T05:41:49;22.60;;;12.00;;
84345;SDS011;74709;53.128;18.020;2024-01-11T05:42:51;19.80;;;10.50;;
84345;SDS011;74709;53.128;18.020;2024-01-11T05:43:54;21.70;;;10.60;;
84345;SDS011;74709;53.128;18.020;2024-01-11T05:44:57;20.10;;;10.00;;
84345;SDS011;74709;53.128;18.020;2024-01-11T05:46:00;22.00;;;10.80;;
84345;SDS011;74709;53.128;18.020;2024-01-11T05:47:03;18.90;;;8.40;;
84345;SDS011;74709;53.128;18.020;2024-01-11T05:48:05;17.60;;;8.80;;
84345;SDS011;74709;53.128;18.020;2024-01-11T05:49:08;16.70;;;9.70;;
84345;SDS011;74709;53.128;18.020;2024-01-11T05:50:12;16.50;;;8.00;;
84345;SDS011;74709;53.128;18.020;2024-01-11T05:51:15;18.40;;;8.60;;
84345;SDS011;74709;53.128;18.020;2024-01-11T05:52:18;20.00;;;8.30;;
84345;SDS011;74709;53.128;18.020;2024-01-11T05:53:21;19.90;;;9.90;;
84345;SDS011;74709;53.128;18.020;2024-01-11T05:54:25;16.40;;;8.40;;
84345;SDS011;74709;53.128;18.020;2024-01-11T05:56:31;16.90;;;8.80;;
84345;SDS011;74709;53.128;18.020;2024-01-11T05:57:36;21.50;;;10.50;;
84345;SDS011;74709;53.128;18.020;2024-01-11T05:58:39;18.30;;;9.10;;
84345;SDS011;74709;53.128;18.020;2024-01-11T05:59:45;18.10;;;9.60;;
84345;SDS011;74709;53.128;18.020;2024-01-11T06:00:47;18.10;;;7.80;;
84345;SDS011;74709;53.128;18.020;2024-01-11T06:01:50;19.30;;;8.90;;
84345;SDS011;74709;53.128;18.020;2024-01-11T06:02:53;19.30;;;9.30;;
84345;SDS011;74709;53.128;18.020;2024-01-11T06:03:57;21.80;;;9.80;;
84345;SDS011;74709;53.128;18.020;2024-01-11T06:05:00;17.50;;;9.10;;
84345;SDS011;74709;53.128;18.020;2024-01-11T06:06:03;18.50;;;10.30;;
84345;SDS011;74709;53.128;18.020;2024-01-11T06:07:06;20.30;;;10.00;;
84345;SDS011;74709;53.128;18.020;2024-01-11T06:08:08;21.20;;;10.00;;
84345;SDS011;74709;53.128;18.020;2024-01-11T06:09:11;19.80;;;9.10;;
84345;SDS011;74709;53.128;18.020;2024-01-11T06:10:21;21.30;;;10.00;;
84345;SDS011;74709;53.128;18.020;2024-01-11T06:11:27;18.40;;;10.10;;